sensor_id;sensor_type;location;lat;lon;timestamp;temperature;humidity
7814;DHT22;3952;48.364;16.022;2023-08-24T00:01:56;22.00;99.90
7814;DHT22;3952;48.364;16.022;2023-08-24T00:04:24;22.00;99.90
7814;DHT22;3952;48.364;16.022;2023-08-24T00:06:51;22.00;99.90
7814;DHT22;3952;48.364;16.022;2023-08-24T00:09:18;22.00;99.90
7814;DHT22;3952;48.364;16.022;2023-08-24T00:11:46;21.90;99.90
7814;DHT22;3952;48.364;16.022;2023-08-24T00:14:14;21.90;99.90
7814;DHT22;3952;48.364;16.022;2023-08-24T00:16:42;21.90;99.90
7814;DHT22;3952;48.364;16.022;2023-08-24T00:19:09;21.90;99.90
7814;DHT22;3952;48.364;16.022;2023-08-24T00:21:36;21.90;99.90
7814;DHT22;3952;48.364;16.022;2023-08-24T00:24:04;21.80;99.90
7814;DHT22;3952;48.364;16.022;2023-08-24T00:26:32;21.80;99.90
7814;DHT22;3952;48.364;16.022;2023-08-24T00:28:59;21.80;99.90
7814;DHT22;3952;48.364;16.022;2023-08-24T00:31:27;21.70;99.90
7814;DHT22;3952;48.364;16.022;2023-08-24T00:33:54;21.60;99.90
7814;DHT22;3952;48.364;16.022;2023-08-24T00:36:22;21.60;99.90
7814;DHT22;3952;48.364;16.022;2023-08-24T00:38:49;21.60;99.90
7814;DHT22;3952;48.364;16.022;2023-08-24T00:41:18;21.60;99.90
7814;DHT22;3952;48.364;16.022;2023-08-24T00:43:47;21.60;99.90
7814;DHT22;3952;48.364;16.022;2023-08-24T00:46:16;21.50;99.90
7814;DHT22;3952;48.364;16.022;2023-08-24T00:48:46;21.50;99.90
7814;DHT22;3952;48.364;16.022;2023-08-24T00:51:13;21.40;99.90
7814;DHT22;3952;48.364;16.022;2023-08-24T00:53:41;21.40;99.90
7814;DHT22;3952;48.364;16.022;2023-08-24T00:56:08;21.30;99.90
7814;DHT22;3952;48.364;16.022;2023-08-24T00:58:35;21.30;99.90
7814;DHT22;3952;48.364;16.022;2023-08-24T01:01:03;21.20;99.90
7814;DHT22;3952;48.364;16.022;2023-08-24T01:03:31;21.20;99.90
7814;DHT22;3952;48.364;16.022;2023-08-24T01:06:00;21.20;99.90
7814;DHT22;3952;48.364;16.022;2023-08-24T01:08:27;21.20;99.90
7814;DHT22;3952;48.364;16.022;2023-08-24T01:10:59;21.20;99.90
7814;DHT22;3952;48.364;16.022;2023-08-24T01:13:32;21.20;99.90
7814;DHT22;3952;48.364;16.022;2023-08-24T01:16:04;21.10;99.90
7814;DHT22;3952;48.364;16.022;2023-08-24T01:18:34;21.10;99.90
7814;DHT22;3952;48.364;16.022;2023-08-24T01:21:04;21.00;99.90
7814;DHT22;3952;48.364;16.022;2023-08-24T01:23:43;21.00;99.90
7814;DHT22;3952;48.364;16.022;2023-08-24T01:26:14;20.90;99.90
7814;DHT22;3952;48.364;16.022;2023-08-24T01:28:44;20.90;99.90
7814;DHT22;3952;48.364;16.022;2023-08-24T01:31:13;20.90;99.90
7814;DHT22;3952;48.364;16.022;2023-08-24T01:33:41;20.90;99.90
7814;DHT22;3952;48.364;16.022;2023-08-24T01:36:08;20.80;99.90
7814;DHT22;3952;48.364;16.022;2023-08-24T01:38:37;20.80;99.90
7814;DHT22;3952;48.364;16.022;2023-08-24T01:41:11;20.70;99.90
7814;DHT22;3952;48.364;16.022;2023-08-24T01:43:43;20.70;99.90
7814;DHT22;3952;48.364;16.022;2023-08-24T01:46:14;20.60;99.90
7814;DHT22;3952;48.364;16.022;2023-08-24T01:48:43;20.60;99.90
7814;DHT22;3952;48.364;16.022;2023-08-24T01:51:11;20.60;99.90
7814;DHT22;3952;48.364;16.022;2023-08-24T01:53:39;20.60;99.90
7814;DHT22;3952;48.364;16.022;2023-08-24T01:56:10;20.60;99.90
7814;DHT22;3952;48.364;16.022;2023-08-24T01:58:38;20.50;99.90
7814;DHT22;3952;48.364;16.022;2023-08-24T02:01:07;20.50;99.90
7814;DHT22;3952;48.364;16.022;2023-08-24T02:03:36;20.40;99.90
7814;DHT22;3952;48.364;16.022;2023-08-24T02:06:05;20.40;99.90
7814;DHT22;3952;48.364;16.022;2023-08-24T02:08:32;20.40;99.90
7814;DHT22;3952;48.364;16.022;2023-08-24T02:11:00;20.40;99.90
7814;DHT22;3952;48.364;16.022;2023-08-24T02:13:27;20.40;99.90
7814;DHT22;3952;48.364;16.022;2023-08-24T02:16:01;20.40;99.90
7814;DHT22;3952;48.364;16.022;2023-08-24T02:18:30;20.40;99.90
7814;DHT22;3952;48.364;16.022;2023-08-24T02:20:57;20.40;99.90
7814;DHT22;3952;48.364;16.022;2023-08-24T02:23:25;20.40;99.90
7814;DHT22;3952;48.364;16.022;2023-08-24T02:25:52;20.30;99.90
7814;DHT22;3952;48.364;16.022;2023-08-24T02:28:20;20.30;99.90
7814;DHT22;3952;48.364;16.022;2023-08-24T02:30:47;20.30;99.90
7814;DHT22;3952;48.364;16.022;2023-08-24T02:33:14;20.30;99.90
7814;DHT22;3952;48.364;16.022;2023-08-24T02:35:43;20.20;99.90
7814;DHT22;3952;48.364;16.022;2023-08-24T02:38:10;20.20;99.90
7814;DHT22;3952;48.364;16.022;2023-08-24T02:40:37;20.20;99.90
7814;DHT22;3952;48.364;16.022;2023-08-24T02:43:05;20.20;99.90
7814;DHT22;3952;48.364;16.022;2023-08-24T02:45:32;20.20;99.90
7814;DHT22;3952;48.364;16.022;2023-08-24T02:47:59;20.20;99.90
7814;DHT22;3952;48.364;16.022;2023-08-24T02:50:26;20.20;99.90
7814;DHT22;3952;48.364;16.022;2023-08-24T02:52:55;20.20;99.90
7814;DHT22;3952;48.364;16.022;2023-08-24T02:55:24;20.20;99.90
7814;DHT22;3952;48.364;16.022;2023-08-24T02:57:51;20.20;99.90
7814;DHT22;3952;48.364;16.022;2023-08-24T03:00:18;20.20;99.90
7814;DHT22;3952;48.364;16.022;2023-08-24T03:02:45;20.20;99.90
7814;DHT22;3952;48.364;16.022;2023-08-24T03:05:12;20.10;99.90
7814;DHT22;3952;48.364;16.022;2023-08-24T03:07:40;20.10;99.90
7814;DHT22;3952;48.364;16.022;2023-08-24T03:10:09;20.10;99.90
7814;DHT22;3952;48.364;16.022;2023-08-24T03:12:37;20.10;99.90
7814;DHT22;3952;48.364;16.022;2023-08-24T03:15:05;20.10;99.90
7814;DHT22;3952;48.364;16.022;2023-08-24T03:17:32;20.10;99.90
7814;DHT22;3952;48.364;16.022;2023-08-24T03:19:59;20.10;99.90
7814;DHT22;3952;48.364;16.022;2023-08-24T03:22:27;20.00;99.90
7814;DHT22;3952;48.364;16.022;2023-08-24T03:24:54;20.00;99.90
7814;DHT22;3952;48.364;16.022;2023-08-24T03:27:23;20.00;99.90
7814;DHT22;3952;48.364;16.022;2023-08-24T03:29:53;19.90;99.90
7814;DHT22;3952;48.364;16.022;2023-08-24T03:32:20;19.90;99.90
7814;DHT22;3952;48.364;16.022;2023-08-24T03:34:47;19.90;99.90
7814;DHT22;3952;48.364;16.022;2023-08-24T03:37:14;19.90;99.90
7814;DHT22;3952;48.364;16.022;2023-08-24T03:39:41;19.90;99.90
7814;DHT22;3952;48.364;16.022;2023-08-24T03:42:09;19.90;99.90
7814;DHT22;3952;48.364;16.022;2023-08-24T03:44:37;19.80;99.90
7814;DHT22;3952;48.364;16.022;2023-08-24T03:47:04;19.80;99.90
7814;DHT22;3952;48.364;16.022;2023-08-24T03:49:32;19.80;99.90
7814;DHT22;3952;48.364;16.022;2023-08-24T03:51:59;19.80;99.90
7814;DHT22;3952;48.364;16.022;2023-08-24T03:54:26;19.80;99.90
7814;DHT22;3952;48.364;16.022;2023-08-24T03:56:53;19.70;99.90
7814;DHT22;3952;48.364;16.022;2023-08-24T03:59:21;19.70;99.90
7814;DHT22;3952;48.364;16.022;2023-08-24T04:01:49;19.70;99.90
7814;DHT22;3952;48.364;16.022;2023-08-24T04:04:16;19.90;99.90
7814;DHT22;3952;48.364;16.022;2023-08-24T04:06:43;19.70;99.90
7814;DHT22;3952;48.364;16.022;2023-08-24T04:09:11;19.70;99.90
7814;DHT22;3952;48.364;16.022;2023-08-24T04:11:38;19.60;99.90
7814;DHT22;3952;48.364;16.022;2023-08-24T04:14:05;19.60;99.90
7814;DHT22;3952;48.364;16.022;2023-08-24T04:16:32;19.60;99.90
7814;DHT22;3952;48.364;16.022;2023-08-24T04:19:01;19.60;99.90
7814;DHT22;3952;48.364;16.022;2023-08-24T04:21:28;19.60;99.90
7814;DHT22;3952;48.364;16.022;2023-08-24T04:23:55;19.60;99.90
7814;DHT22;3952;48.364;16.022;2023-08-24T04:26:23;19.50;99.90
7814;DHT22;3952;48.364;16.022;2023-08-24T04:28:50;19.60;99.90
7814;DHT22;3952;48.364;16.022;2023-08-24T04:31:17;19.60;99.90
7814;DHT22;3952;48.364;16.022;2023-08-24T04:33:44;19.60;99.90
7814;DHT22;3952;48.364;16.022;2023-08-24T04:36:13;19.50;99.90
7814;DHT22;3952;48.364;16.022;2023-08-24T04:38:41;19.60;99.90
7814;DHT22;3952;48.364;16.022;2023-08-24T04:41:08;19.60;99.90
7814;DHT22;3952;48.364;16.022;2023-08-24T04:43:38;19.60;99.90
7814;DHT22;3952;48.364;16.022;2023-08-24T04:46:04;19.60;99.90
7814;DHT22;3952;48.364;16.022;2023-08-24T04:48:31;19.60;99.90
7814;DHT22;3952;48.364;16.022;2023-08-24T04:51:00;19.60;99.90
7814;DHT22;3952;48.364;16.022;2023-08-24T04:53:29;19.60;99.90
7814;DHT22;3952;48.364;16.022;2023-08-24T04:55:56;19.60;99.90
7814;DHT22;3952;48.364;16.022;2023-08-24T04:58:23;19.70;99.90
7814;DHT22;3952;48.364;16.022;2023-08-24T05:00:51;19.70;99.90
7814;DHT22;3952;48.364;16.022;2023-08-24T05:03:18;19.80;99.90
7814;DHT22;3952;48.364;16.022;2023-08-24T05:05:47;19.80;99.90
7814;DHT22;3952;48.364;16.022;2023-08-24T05:08:14;19.80;99.90
7814;DHT22;3952;48.364;16.022;2023-08-24T05:10:43;19.90;99.90
7814;DHT22;3952;48.364;16.022;2023-08-24T05:13:11;19.90;99.90
7814;DHT22;3952;48.364;16.022;2023-08-24T05:15:38;19.90;99.90
7814;DHT22;3952;48.364;16.022;2023-08-24T05:18:05;19.90;99.90
7814;DHT22;3952;48.364;16.022;2023-08-24T05:20:33;19.90;99.90
7814;DHT22;3952;48.364;16.022;2023-08-24T05:23:00;20.00;99.90
7814;DHT22;3952;48.364;16.022;2023-08-24T05:25:27;20.00;99.90
7814;DHT22;3952;48.364;16.022;2023-08-24T05:27:56;20.10;99.90
7814;DHT22;3952;48.364;16.022;2023-08-24T05:30:23;20.10;99.90
7814;DHT22;3952;48.364;16.022;2023-08-24T05:32:50;20.20;99.90
7814;DHT22;3952;48.364;16.022;2023-08-24T05:35:18;20.20;99.90
7814;DHT22;3952;48.364;16.022;2023-08-24T05:37:45;20.30;99.90
7814;DHT22;3952;48.364;16.022;2023-08-24T05:40:12;20.30;99.90
7814;DHT22;3952;48.364;16.022;2023-08-24T05:42:39;20.40;99.90
7814;DHT22;3952;48.364;16.022;2023-08-24T05:45:09;20.40;99.90
7814;DHT22;3952;48.364;16.022;2023-08-24T05:47:38;20.50;99.90
7814;DHT22;3952;48.364;16.022;2023-08-24T05:50:06;20.50;99.90
7814;DHT22;3952;48.364;16.022;2023-08-24T05:52:33;20.50;99.90
7814;DHT22;3952;48.364;16.022;2023-08-24T05:55:00;20.60;99.90
7814;DHT22;3952;48.364;16.022;2023-08-24T05:57:28;20.70;99.90
7814;DHT22;3952;48.364;16.022;2023-08-24T05:59:55;20.70;99.90
7814;DHT22;3952;48.364;16.022;2023-08-24T06:02:24;20.80;99.90
7814;DHT22;3952;48.364;16.022;2023-08-24T06:04:51;20.80;99.90
7814;DHT22;3952;48.364;16.022;2023-08-24T06:07:18;20.90;99.90
7814;DHT22;3952;48.364;16.022;2023-08-24T06:09:47;20.90;99.90
7814;DHT22;3952;48.364;16.022;2023-08-24T06:12:14;21.00;99.90
7814;DHT22;3952;48.364;16.022;2023-08-24T06:14:41;21.00;99.90
7814;DHT22;3952;48.364;16.022;2023-08-24T06:17:08;21.10;99.90
7814;DHT22;3952;48.364;16.022;2023-08-24T06:19:37;21.20;99.90
7814;DHT22;3952;48.364;16.022;2023-08-24T06:22:04;21.20;99.90
7814;DHT22;3952;48.364;16.022;2023-08-24T06:24:31;21.30;99.90
7814;DHT22;3952;48.364;16.022;2023-08-24T06:26:59;21.40;99.90
7814;DHT22;3952;48.364;16.022;2023-08-24T06:29:28;21.50;99.90
7814;DHT22;3952;48.364;16.022;2023-08-24T06:31:56;21.60;99.90
7814;DHT22;3952;48.364;16.022;2023-08-24T06:34:23;21.70;99.90
7814;DHT22;3952;48.364;16.022;2023-08-24T06:36:53;21.80;99.90
7814;DHT22;3952;48.364;16.022;2023-08-24T06:39:20;21.90;99.90
7814;DHT22;3952;48.364;16.022;2023-08-24T06:41:47;22.00;99.90
7814;DHT22;3952;48.364;16.022;2023-08-24T06:44:17;22.00;99.90
7814;DHT22;3952;48.364;16.022;2023-08-24T06:46:44;22.20;99.90
7814;DHT22;3952;48.364;16.022;2023-08-24T06:49:12;22.30;99.90
7814;DHT22;3952;48.364;16.022;2023-08-24T06:51:40;22.40;99.90
7814;DHT22;3952;48.364;16.022;2023-08-24T06:54:08;22.50;99.90
7814;DHT22;3952;48.364;16.022;2023-08-24T06:56:35;22.70;99.90
7814;DHT22;3952;48.364;16.022;2023-08-24T06:59:02;22.80;99.90
7814;DHT22;3952;48.364;16.022;2023-08-24T07:01:30;22.90;99.90
7814;DHT22;3952;48.364;16.022;2023-08-24T07:03:57;23.00;99.90
7814;DHT22;3952;48.364;16.022;2023-08-24T07:06:24;23.20;99.90
7814;DHT22;3952;48.364;16.022;2023-08-24T07:08:51;23.30;99.90
7814;DHT22;3952;48.364;16.022;2023-08-24T07:11:20;23.40;99.90
7814;DHT22;3952;48.364;16.022;2023-08-24T07:13:49;23.50;99.90
7814;DHT22;3952;48.364;16.022;2023-08-24T07:16:16;23.70;99.90
7814;DHT22;3952;48.364;16.022;2023-08-24T07:18:43;23.80;99.90
7814;DHT22;3952;48.364;16.022;2023-08-24T07:21:10;23.90;99.90
7814;DHT22;3952;48.364;16.022;2023-08-24T07:23:39;24.00;99.90
7814;DHT22;3952;48.364;16.022;2023-08-24T07:26:07;24.10;99.90
7814;DHT22;3952;48.364;16.022;2023-08-24T07:28:36;24.30;99.90
7814;DHT22;3952;48.364;16.022;2023-08-24T07:31:07;24.40;99.90
7814;DHT22;3952;48.364;16.022;2023-08-24T07:33:36;24.60;99.90
7814;DHT22;3952;48.364;16.022;2023-08-24T07:36:05;24.80;99.90
7814;DHT22;3952;48.364;16.022;2023-08-24T07:38:32;24.90;99.90
7814;DHT22;3952;48.364;16.022;2023-08-24T07:40:59;25.00;99.90
7814;DHT22;3952;48.364;16.022;2023-08-24T07:43:27;25.20;99.90
7814;DHT22;3952;48.364;16.022;2023-08-24T07:45:56;25.30;99.90
7814;DHT22;3952;48.364;16.022;2023-08-24T07:48:23;25.40;99.90
7814;DHT22;3952;48.364;16.022;2023-08-24T07:50:50;25.50;99.90
7814;DHT22;3952;48.364;16.022;2023-08-24T07:53:18;25.60;99.90
7814;DHT22;3952;48.364;16.022;2023-08-24T07:55:45;25.70;99.90
7814;DHT22;3952;48.364;16.022;2023-08-24T07:58:13;25.80;99.90
7814;DHT22;3952;48.364;16.022;2023-08-24T08:00:40;25.90;99.90
7814;DHT22;3952;48.364;16.022;2023-08-24T08:03:08;26.10;99.90
7814;DHT22;3952;48.364;16.022;2023-08-24T08:05:36;26.30;99.90
7814;DHT22;3952;48.364;16.022;2023-08-24T08:08:04;26.40;99.90
7814;DHT22;3952;48.364;16.022;2023-08-24T08:10:31;26.40;99.90
7814;DHT22;3952;48.364;16.022;2023-08-24T08:12:59;26.60;99.90
7814;DHT22;3952;48.364;16.022;2023-08-24T08:15:26;26.80;99.90
7814;DHT22;3952;48.364;16.022;2023-08-24T08:17:53;26.80;99.90
7814;DHT22;3952;48.364;16.022;2023-08-24T08:20:21;26.90;99.90
7814;DHT22;3952;48.364;16.022;2023-08-24T08:22:49;27.00;99.90
7814;DHT22;3952;48.364;16.022;2023-08-24T08:25:16;27.00;99.90
7814;DHT22;3952;48.364;16.022;2023-08-24T08:27:44;27.10;99.90
7814;DHT22;3952;48.364;16.022;2023-08-24T08:30:12;27.20;99.90
7814;DHT22;3952;48.364;16.022;2023-08-24T08:32:40;27.20;99.90
7814;DHT22;3952;48.364;16.022;2023-08-24T08:35:08;27.30;99.90
7814;DHT22;3952;48.364;16.022;2023-08-24T08:37:37;27.40;99.90
7814;DHT22;3952;48.364;16.022;2023-08-24T08:40:08;27.40;99.90
7814;DHT22;3952;48.364;16.022;2023-08-24T08:42:37;27.60;99.90
7814;DHT22;3952;48.364;16.022;2023-08-24T08:45:08;27.60;99.90
7814;DHT22;3952;48.364;16.022;2023-08-24T08:47:36;27.70;99.90
7814;DHT22;3952;48.364;16.022;2023-08-24T08:50:04;27.80;99.90
7814;DHT22;3952;48.364;16.022;2023-08-24T08:52:32;27.80;99.90
7814;DHT22;3952;48.364;16.022;2023-08-24T08:55:01;27.90;99.90
7814;DHT22;3952;48.364;16.022;2023-08-24T08:57:32;28.10;99.90
7814;DHT22;3952;48.364;16.022;2023-08-24T09:00:01;28.20;99.90
7814;DHT22;3952;48.364;16.022;2023-08-24T09:02:29;28.20;99.90
7814;DHT22;3952;48.364;16.022;2023-08-24T09:04:57;28.30;99.90
7814;DHT22;3952;48.364;16.022;2023-08-24T09:07:25;28.40;99.90
7814;DHT22;3952;48.364;16.022;2023-08-24T09:09:53;28.50;99.90
7814;DHT22;3952;48.364;16.022;2023-08-24T09:12:22;28.60;99.90
7814;DHT22;3952;48.364;16.022;2023-08-24T09:14:49;28.70;99.90
7814;DHT22;3952;48.364;16.022;2023-08-24T09:17:22;28.80;99.90
7814;DHT22;3952;48.364;16.022;2023-08-24T09:19:50;29.00;99.90
7814;DHT22;3952;48.364;16.022;2023-08-24T09:22:18;29.00;99.90
7814;DHT22;3952;48.364;16.022;2023-08-24T09:24:49;29.00;99.90
7814;DHT22;3952;48.364;16.022;2023-08-24T09:27:18;29.10;99.90
7814;DHT22;3952;48.364;16.022;2023-08-24T09:29:49;29.20;99.90
7814;DHT22;3952;48.364;16.022;2023-08-24T09:32:23;29.30;99.90
7814;DHT22;3952;48.364;16.022;2023-08-24T09:34:50;29.40;99.90
7814;DHT22;3952;48.364;16.022;2023-08-24T09:37:18;29.40;99.90
7814;DHT22;3952;48.364;16.022;2023-08-24T09:39:46;29.50;99.90
7814;DHT22;3952;48.364;16.022;2023-08-24T09:42:14;29.50;99.90
7814;DHT22;3952;48.364;16.022;2023-08-24T09:44:44;29.70;99.90
7814;DHT22;3952;48.364;16.022;2023-08-24T09:47:13;29.70;99.90
7814;DHT22;3952;48.364;16.022;2023-08-24T09:49:41;29.70;99.90
7814;DHT22;3952;48.364;16.022;2023-08-24T09:52:08;29.70;99.90
7814;DHT22;3952;48.364;16.022;2023-08-24T09:54:37;29.70;99.90
7814;DHT22;3952;48.364;16.022;2023-08-24T09:57:06;29.80;99.90
7814;DHT22;3952;48.364;16.022;2023-08-24T09:59:35;29.90;99.90
7814;DHT22;3952;48.364;16.022;2023-08-24T10:02:13;30.10;99.90
7814;DHT22;3952;48.364;16.022;2023-08-24T10:04:44;30.20;99.90
7814;DHT22;3952;48.364;16.022;2023-08-24T10:07:15;30.30;99.90
7814;DHT22;3952;48.364;16.022;2023-08-24T10:09:53;30.40;99.90
7814;DHT22;3952;48.364;16.022;2023-08-24T10:12:27;30.50;99.90
7814;DHT22;3952;48.364;16.022;2023-08-24T10:14:59;30.40;99.90
7814;DHT22;3952;48.364;16.022;2023-08-24T10:17:29;30.50;99.90
7814;DHT22;3952;48.364;16.022;2023-08-24T10:19:58;30.60;99.90
7814;DHT22;3952;48.364;16.022;2023-08-24T10:22:27;30.80;99.90
7814;DHT22;3952;48.364;16.022;2023-08-24T10:24:55;31.00;99.90
7814;DHT22;3952;48.364;16.022;2023-08-24T10:27:23;31.10;99.90
7814;DHT22;3952;48.364;16.022;2023-08-24T10:29:50;31.30;99.90
7814;DHT22;3952;48.364;16.022;2023-08-24T10:32:18;31.30;99.90
7814;DHT22;3952;48.364;16.022;2023-08-24T10:34:46;31.30;99.90
7814;DHT22;3952;48.364;16.022;2023-08-24T10:37:15;31.10;99.90
7814;DHT22;3952;48.364;16.022;2023-08-24T10:39:46;31.10;99.90
7814;DHT22;3952;48.364;16.022;2023-08-24T10:42:14;31.20;99.90
7814;DHT22;3952;48.364;16.022;2023-08-24T10:44:44;31.20;99.90
7814;DHT22;3952;48.364;16.022;2023-08-24T10:47:13;31.30;99.90
7814;DHT22;3952;48.364;16.022;2023-08-24T10:49:41;31.40;99.90
7814;DHT22;3952;48.364;16.022;2023-08-24T10:52:21;31.40;99.90
7814;DHT22;3952;48.364;16.022;2023-08-24T10:54:49;31.50;99.90
7814;DHT22;3952;48.364;16.022;2023-08-24T10:57:21;31.60;99.90
7814;DHT22;3952;48.364;16.022;2023-08-24T11:00:04;31.70;99.90
7814;DHT22;3952;48.364;16.022;2023-08-24T11:02:42;31.80;99.90
7814;DHT22;3952;48.364;16.022;2023-08-24T11:05:17;32.00;99.90
7814;DHT22;3952;48.364;16.022;2023-08-24T11:07:56;32.10;99.90
7814;DHT22;3952;48.364;16.022;2023-08-24T11:10:24;32.10;99.90
7814;DHT22;3952;48.364;16.022;2023-08-24T11:13:12;32.20;99.90
7814;DHT22;3952;48.364;16.022;2023-08-24T11:15:41;32.30;99.90
7814;DHT22;3952;48.364;16.022;2023-08-24T11:18:20;32.40;99.90
7814;DHT22;3952;48.364;16.022;2023-08-24T11:20:49;32.40;99.90
7814;DHT22;3952;48.364;16.022;2023-08-24T11:23:18;32.30;99.90
7814;DHT22;3952;48.364;16.022;2023-08-24T11:25:46;32.40;99.90
7814;DHT22;3952;48.364;16.022;2023-08-24T11:28:17;32.30;99.90
7814;DHT22;3952;48.364;16.022;2023-08-24T11:30:46;32.20;99.90
7814;DHT22;3952;48.364;16.022;2023-08-24T11:33:13;32.10;99.90
7814;DHT22;3952;48.364;16.022;2023-08-24T11:35:42;32.00;99.90
7814;DHT22;3952;48.364;16.022;2023-08-24T11:38:10;32.00;99.90
7814;DHT22;3952;48.364;16.022;2023-08-24T11:40:39;32.00;99.90
7814;DHT22;3952;48.364;16.022;2023-08-24T11:43:06;32.00;99.90
7814;DHT22;3952;48.364;16.022;2023-08-24T11:45:35;32.00;99.90
7814;DHT22;3952;48.364;16.022;2023-08-24T11:48:04;32.10;99.90
7814;DHT22;3952;48.364;16.022;2023-08-24T11:50:33;32.20;99.90
7814;DHT22;3952;48.364;16.022;2023-08-24T11:53:01;32.20;99.90
7814;DHT22;3952;48.364;16.022;2023-08-24T11:55:28;32.20;99.90
7814;DHT22;3952;48.364;16.022;2023-08-24T11:57:57;32.30;99.90
7814;DHT22;3952;48.364;16.022;2023-08-24T12:00:24;32.30;99.90
7814;DHT22;3952;48.364;16.022;2023-08-24T12:02:52;32.40;99.90
7814;DHT22;3952;48.364;16.022;2023-08-24T12:05:21;32.40;99.90
7814;DHT22;3952;48.364;16.022;2023-08-24T12:07:49;32.40;99.90
7814;DHT22;3952;48.364;16.022;2023-08-24T12:10:16;32.40;99.90
7814;DHT22;3952;48.364;16.022;2023-08-24T12:12:43;32.30;99.90
7814;DHT22;3952;48.364;16.022;2023-08-24T12:15:17;32.20;99.90
7814;DHT22;3952;48.364;16.022;2023-08-24T12:17:46;32.10;99.90
7814;DHT22;3952;48.364;16.022;2023-08-24T12:20:21;32.00;99.90
7814;DHT22;3952;48.364;16.022;2023-08-24T12:22:51;32.10;99.90
7814;DHT22;3952;48.364;16.022;2023-08-24T12:25:21;32.10;99.90
7814;DHT22;3952;48.364;16.022;2023-08-24T12:27:50;32.10;99.90
7814;DHT22;3952;48.364;16.022;2023-08-24T12:30:18;32.10;99.90
7814;DHT22;3952;48.364;16.022;2023-08-24T12:32:47;32.10;99.90
7814;DHT22;3952;48.364;16.022;2023-08-24T12:35:16;32.10;99.90
7814;DHT22;3952;48.364;16.022;2023-08-24T12:37:44;32.10;99.90
7814;DHT22;3952;48.364;16.022;2023-08-24T12:40:13;32.00;99.90
7814;DHT22;3952;48.364;16.022;2023-08-24T12:42:40;32.00;99.90
7814;DHT22;3952;48.364;16.022;2023-08-24T12:45:08;32.00;99.40
7814;DHT22;3952;48.364;16.022;2023-08-24T12:47:37;31.90;99.90
7814;DHT22;3952;48.364;16.022;2023-08-24T12:50:06;31.90;99.90
7814;DHT22;3952;48.364;16.022;2023-08-24T12:52:33;31.90;97.50
7814;DHT22;3952;48.364;16.022;2023-08-24T12:55:01;31.70;92.00
7814;DHT22;3952;48.364;16.022;2023-08-24T12:57:28;31.70;93.10
7814;DHT22;3952;48.364;16.022;2023-08-24T12:59:56;31.60;95.20
7814;DHT22;3952;48.364;16.022;2023-08-24T13:02:24;31.70;96.60
7814;DHT22;3952;48.364;16.022;2023-08-24T13:04:52;31.60;97.50
7814;DHT22;3952;48.364;16.022;2023-08-24T13:07:20;31.60;97.50
7814;DHT22;3952;48.364;16.022;2023-08-24T13:09:47;31.70;98.00
7814;DHT22;3952;48.364;16.022;2023-08-24T13:12:14;31.70;97.30
7814;DHT22;3952;48.364;16.022;2023-08-24T13:14:41;31.80;97.60
7814;DHT22;3952;48.364;16.022;2023-08-24T13:17:09;31.80;93.20
7814;DHT22;3952;48.364;16.022;2023-08-24T13:19:37;31.80;91.10
7814;DHT22;3952;48.364;16.022;2023-08-24T13:22:05;31.70;93.60
7814;DHT22;3952;48.364;16.022;2023-08-24T13:24:33;31.80;93.90
7814;DHT22;3952;48.364;16.022;2023-08-24T13:27:00;31.80;93.20
7814;DHT22;3952;48.364;16.022;2023-08-24T13:29:28;31.70;89.70
7814;DHT22;3952;48.364;16.022;2023-08-24T13:31:55;31.70;91.10
7814;DHT22;3952;48.364;16.022;2023-08-24T13:34:23;31.70;91.90
7814;DHT22;3952;48.364;16.022;2023-08-24T13:36:50;31.70;91.20
7814;DHT22;3952;48.364;16.022;2023-08-24T13:39:18;31.70;92.20
7814;DHT22;3952;48.364;16.022;2023-08-24T13:41:46;31.70;93.20
7814;DHT22;3952;48.364;16.022;2023-08-24T13:44:13;31.70;94.00
7814;DHT22;3952;48.364;16.022;2023-08-24T13:46:40;31.80;93.80
7814;DHT22;3952;48.364;16.022;2023-08-24T13:49:07;31.80;93.00
7814;DHT22;3952;48.364;16.022;2023-08-24T13:51:36;31.70;92.80
7814;DHT22;3952;48.364;16.022;2023-08-24T13:54:13;31.70;94.00
7814;DHT22;3952;48.364;16.022;2023-08-24T13:56:42;31.80;95.00
7814;DHT22;3952;48.364;16.022;2023-08-24T13:59:09;31.70;92.60
7814;DHT22;3952;48.364;16.022;2023-08-24T14:01:36;31.70;92.30
7814;DHT22;3952;48.364;16.022;2023-08-24T14:04:04;31.60;92.30
7814;DHT22;3952;48.364;16.022;2023-08-24T14:06:31;31.60;93.40
7814;DHT22;3952;48.364;16.022;2023-08-24T14:08:59;31.50;92.30
7814;DHT22;3952;48.364;16.022;2023-08-24T14:11:27;31.50;93.80
7814;DHT22;3952;48.364;16.022;2023-08-24T14:13:56;31.50;93.90
7814;DHT22;3952;48.364;16.022;2023-08-24T14:16:24;31.50;93.00
7814;DHT22;3952;48.364;16.022;2023-08-24T14:18:51;31.60;94.40
7814;DHT22;3952;48.364;16.022;2023-08-24T14:21:19;31.60;94.50
7814;DHT22;3952;48.364;16.022;2023-08-24T14:23:49;31.60;92.20
7814;DHT22;3952;48.364;16.022;2023-08-24T14:26:17;31.60;93.80
7814;DHT22;3952;48.364;16.022;2023-08-24T14:28:48;31.60;95.10
7814;DHT22;3952;48.364;16.022;2023-08-24T14:31:17;31.50;93.00
7814;DHT22;3952;48.364;16.022;2023-08-24T14:33:44;31.50;93.20
7814;DHT22;3952;48.364;16.022;2023-08-24T14:36:11;31.40;93.40
7814;DHT22;3952;48.364;16.022;2023-08-24T14:38:39;31.40;94.80
7814;DHT22;3952;48.364;16.022;2023-08-24T14:41:07;31.40;96.20
7814;DHT22;3952;48.364;16.022;2023-08-24T14:43:34;31.50;95.60
7814;DHT22;3952;48.364;16.022;2023-08-24T14:46:01;31.50;95.50
7814;DHT22;3952;48.364;16.022;2023-08-24T14:48:30;31.50;93.30
7814;DHT22;3952;48.364;16.022;2023-08-24T14:50:58;31.50;94.10
7814;DHT22;3952;48.364;16.022;2023-08-24T14:53:25;31.50;93.40
7814;DHT22;3952;48.364;16.022;2023-08-24T14:55:53;31.50;93.20
7814;DHT22;3952;48.364;16.022;2023-08-24T14:58:20;31.50;94.10
7814;DHT22;3952;48.364;16.022;2023-08-24T15:00:48;31.50;94.30
7814;DHT22;3952;48.364;16.022;2023-08-24T15:03:16;31.40;93.70
7814;DHT22;3952;48.364;16.022;2023-08-24T15:05:46;31.40;93.00
7814;DHT22;3952;48.364;16.022;2023-08-24T15:08:14;31.40;92.90
7814;DHT22;3952;48.364;16.022;2023-08-24T15:10:41;31.30;92.70
7814;DHT22;3952;48.364;16.022;2023-08-24T15:13:08;31.30;93.00
7814;DHT22;3952;48.364;16.022;2023-08-24T15:15:36;31.30;93.10
7814;DHT22;3952;48.364;16.022;2023-08-24T15:18:04;31.20;93.00
7814;DHT22;3952;48.364;16.022;2023-08-24T15:20:31;31.20;92.90
7814;DHT22;3952;48.364;16.022;2023-08-24T15:23:00;31.10;91.80
7814;DHT22;3952;48.364;16.022;2023-08-24T15:25:27;31.10;92.60
7814;DHT22;3952;48.364;16.022;2023-08-24T15:27:54;31.10;92.90
7814;DHT22;3952;48.364;16.022;2023-08-24T15:30:22;31.10;93.20
7814;DHT22;3952;48.364;16.022;2023-08-24T15:32:49;31.00;92.20
7814;DHT22;3952;48.364;16.022;2023-08-24T15:35:16;31.00;93.10
7814;DHT22;3952;48.364;16.022;2023-08-24T15:37:44;31.00;93.40
7814;DHT22;3952;48.364;16.022;2023-08-24T15:40:13;31.00;93.70
7814;DHT22;3952;48.364;16.022;2023-08-24T15:42:40;31.00;93.50
7814;DHT22;3952;48.364;16.022;2023-08-24T15:45:08;31.00;92.90
7814;DHT22;3952;48.364;16.022;2023-08-24T15:47:35;30.90;93.10
7814;DHT22;3952;48.364;16.022;2023-08-24T15:50:02;30.90;93.40
7814;DHT22;3952;48.364;16.022;2023-08-24T15:52:30;30.90;92.20